createdAt,value
2023-10-02T00:00:00.629Z,100870
2023-10-02T00:01:00.628Z,100870
2023-10-02T00:02:00.763Z,100870
2023-10-02T00:03:00.632Z,100870
2023-10-02T00:04:00.810Z,100870
2023-10-02T00:05:00.718Z,100870
2023-10-02T00:06:00.883Z,100870
2023-10-02T00:07:00.561Z,100870
2023-10-02T00:08:00.637Z,100870
2023-10-02T00:09:00.571Z,100870
2023-10-02T00:10:01.596Z,100860
2023-10-02T00:11:18.865Z,100860
2023-10-02T00:12:03.235Z,100860
2023-10-02T00:13:00.556Z,100850
2023-10-02T00:14:02.982Z,100860
2023-10-02T00:15:03.065Z,100860
2023-10-02T00:16:00.599Z,100860
2023-10-02T00:17:02.677Z,100860
2023-10-02T00:18:00.618Z,100850
2023-10-02T00:19:00.574Z,100860
2023-10-02T00:20:00.591Z,100860
2023-10-02T00:21:00.549Z,100860
2023-10-02T00:22:00.554Z,100860
2023-10-02T00:23:00.607Z,100860
2023-10-02T00:24:00.885Z,100860
2023-10-02T00:25:03.333Z,100850
2023-10-02T00:26:00.612Z,100860
2023-10-02T00:27:00.553Z,100860
2023-10-02T00:28:00.622Z,100860
2023-10-02T00:29:00.785Z,100860
2023-10-02T00:30:01.413Z,100850
2023-10-02T00:31:00.620Z,100850
2023-10-02T00:32:01.784Z,100850
2023-10-02T00:33:00.581Z,100850
2023-10-02T00:34:00.722Z,100850
2023-10-02T00:35:02.645Z,100860
2023-10-02T00:36:00.578Z,100850
2023-10-02T00:37:03.115Z,100850
2023-10-02T00:38:00.576Z,100850
2023-10-02T00:39:00.608Z,100850
2023-10-02T00:40:00.587Z,100850
2023-10-02T00:41:00.599Z,100850
2023-10-02T00:42:00.565Z,100850
2023-10-02T00:43:02.275Z,100860
2023-10-02T00:44:00.757Z,100860
2023-10-02T00:45:00.630Z,100860
2023-10-02T00:46:00.624Z,100860
2023-10-02T00:47:00.668Z,100860
2023-10-02T00:48:00.712Z,100860
2023-10-02T00:49:00.667Z,100870
2023-10-02T00:50:03.919Z,100870
2023-10-02T00:51:02.172Z,100870
2023-10-02T00:52:00.720Z,100860
2023-10-02T00:53:03.474Z,100870
2023-10-02T00:54:00.837Z,100870
2023-10-02T00:55:01.457Z,100860
2023-10-02T00:56:00.976Z,100860
2023-10-02T00:57:03.684Z,100870
2023-10-02T00:58:03.302Z,100860
2023-10-02T00:59:01.029Z,100860
2023-10-02T01:00:01.709Z,100860
2023-10-02T01:01:00.744Z,100860
2023-10-02T01:02:00.793Z,100860
2023-10-02T01:03:03.747Z,100860
2023-10-02T01:04:03.584Z,100860
2023-10-02T01:05:00.978Z,100860
2023-10-02T01:06:00.581Z,100860
2023-10-02T01:07:00.797Z,100860
2023-10-02T01:08:00.655Z,100860
2023-10-02T01:09:01.441Z,100860
2023-10-02T01:10:01.961Z,100860
2023-10-02T01:11:01.167Z,100870
2023-10-02T01:12:00.690Z,100870
2023-10-02T01:13:00.739Z,100870
2023-10-02T01:14:02.478Z,100870
2023-10-02T01:15:01.176Z,100870
2023-10-02T01:16:03.009Z,100870
2023-10-02T01:17:01.377Z,100870
2023-10-02T01:18:00.769Z,100870
2023-10-02T01:19:00.898Z,100870
2023-10-02T01:20:00.866Z,100870
2023-10-02T01:21:02.429Z,100870
2023-10-02T01:22:01.275Z,100870
2023-10-02T01:23:02.924Z,100870
2023-10-02T01:24:00.717Z,100870
2023-10-02T01:25:02.229Z,100870
2023-10-02T01:26:00.905Z,100870
2023-10-02T01:27:00.767Z,100870
2023-10-02T01:28:00.985Z,100870
2023-10-02T01:29:00.659Z,100870
2023-10-02T01:30:00.556Z,100870
2023-10-02T01:31:00.588Z,100870
2023-10-02T01:32:05.253Z,100870
2023-10-02T01:33:02.103Z,100870
2023-10-02T01:34:02.075Z,100870
2023-10-02T01:35:00.641Z,100870
2023-10-02T01:36:01.374Z,100870
2023-10-02T01:37:01.283Z,100870
2023-10-02T01:38:00.685Z,100870
2023-10-02T01:39:02.981Z,100870
2023-10-02T01:40:00.617Z,100870
2023-10-02T01:41:02.766Z,100880
2023-10-02T01:42:00.557Z,100880
2023-10-02T01:43:02.454Z,100870
2023-10-02T01:44:03.726Z,100880
2023-10-02T01:45:00.590Z,100880
2023-10-02T01:46:00.554Z,100880
2023-10-02T01:47:00.635Z,100870
2023-10-02T01:48:01.203Z,100880
2023-10-02T01:49:00.558Z,100880
2023-10-02T01:50:00.597Z,100880
2023-10-02T01:51:00.558Z,100870
2023-10-02T01:52:00.636Z,100870
2023-10-02T01:53:03.796Z,100870
2023-10-02T01:54:03.449Z,100880
2023-10-02T01:55:00.556Z,100880
2023-10-02T01:56:00.641Z,100870
2023-10-02T01:57:00.663Z,100870
2023-10-02T01:58:02.056Z,100880
2023-10-02T01:59:00.978Z,100880
2023-10-02T02:00:00.560Z,100880
2023-10-02T02:01:00.634Z,100880
2023-10-02T02:02:00.805Z,100880
2023-10-02T02:03:00.760Z,100880
2023-10-02T02:04:00.947Z,100880
2023-10-02T02:05:00.595Z,100890
2023-10-02T02:06:00.603Z,100890
2023-10-02T02:07:01.973Z,100890
2023-10-02T02:08:00.564Z,100890
2023-10-02T02:09:00.845Z,100890
2023-10-02T02:10:00.608Z,100890
2023-10-02T02:11:04.393Z,100890
2023-10-02T02:12:03.146Z,100890
2023-10-02T02:13:00.582Z,100890
2023-10-02T02:14:00.737Z,100880
2023-10-02T02:15:00.680Z,100880
2023-10-02T02:16:00.555Z,100880
2023-10-02T02:17:00.622Z,100880
2023-10-02T02:18:00.703Z,100870
2023-10-02T02:19:01.940Z,100880
2023-10-02T02:20:00.649Z,100870
2023-10-02T02:21:00.626Z,100870
2023-10-02T02:22:02.689Z,100870
2023-10-02T02:23:00.602Z,100870
2023-10-02T02:24:01.256Z,100870
2023-10-02T02:25:00.561Z,100870
2023-10-02T02:26:00.625Z,100870
2023-10-02T02:27:00.807Z,100870
2023-10-02T02:28:00.581Z,100870
2023-10-02T02:29:00.810Z,100860
2023-10-02T02:30:01.008Z,100860
2023-10-02T02:31:00.562Z,100860
2023-10-02T02:32:00.795Z,100860
2023-10-02T02:33:00.599Z,100870
2023-10-02T02:34:04.192Z,100860
2023-10-02T02:35:00.591Z,100870
2023-10-02T02:36:02.513Z,100870
2023-10-02T02:37:00.572Z,100870
2023-10-02T02:38:00.592Z,100870
2023-10-02T02:39:02.769Z,100870
2023-10-02T02:40:01.507Z,100870
2023-10-02T02:41:07.916Z,100870
2023-10-02T02:42:00.563Z,100870
2023-10-02T02:43:00.556Z,100870
2023-10-02T02:44:00.848Z,100860
2023-10-02T02:45:00.579Z,100860
2023-10-02T02:46:00.605Z,100860
2023-10-02T02:47:01.260Z,100860
2023-10-02T02:48:02.622Z,100860
2023-10-02T02:49:00.567Z,100860
2023-10-02T02:50:00.636Z,100860
2023-10-02T02:51:00.601Z,100860
2023-10-02T02:52:00.580Z,100860
2023-10-02T02:53:00.625Z,100860
2023-10-02T02:54:00.737Z,100860
2023-10-02T02:55:02.009Z,100860
2023-10-02T02:56:03.065Z,100860
2023-10-02T02:57:00.565Z,100860
2023-10-02T02:58:00.585Z,100860
2023-10-02T02:59:00.630Z,100860
2023-10-02T03:00:03.781Z,100860
2023-10-02T03:01:00.606Z,100860
2023-10-02T03:02:00.712Z,100860
2023-10-02T03:03:01.778Z,100860
2023-10-02T03:04:01.243Z,100860
2023-10-02T03:05:00.597Z,100860
2023-10-02T03:06:00.608Z,100860
2023-10-02T03:07:00.561Z,100860
2023-10-02T03:08:00.633Z,100860
2023-10-02T03:09:00.561Z,100860
2023-10-02T03:10:00.584Z,100860
2023-10-02T03:11:00.620Z,100860
2023-10-02T03:12:00.561Z,100870
2023-10-02T03:13:00.588Z,100860
2023-10-02T03:14:00.868Z,100870
2023-10-02T03:15:00.583Z,100870
2023-10-02T03:16:01.965Z,100870
2023-10-02T03:17:00.992Z,100870
2023-10-02T03:18:00.605Z,100870
2023-10-02T03:19:00.565Z,100870
2023-10-02T03:20:00.814Z,100870
2023-10-02T03:21:01.402Z,100880
2023-10-02T03:22:00.577Z,100870
2023-10-02T03:23:00.585Z,100870
2023-10-02T03:24:01.568Z,100870
2023-10-02T03:25:00.577Z,100870
2023-10-02T03:26:00.723Z,100870
2023-10-02T03:27:00.560Z,100870
2023-10-02T03:28:00.566Z,100860
2023-10-02T03:29:09.934Z,100870
2023-10-02T03:30:00.548Z,100860
2023-10-02T03:31:00.724Z,100860
2023-10-02T03:32:00.655Z,100860
2023-10-02T03:33:01.645Z,100860
2023-10-02T03:34:03.322Z,100860
2023-10-02T03:35:00.688Z,100860
2023-10-02T03:36:00.904Z,100860
2023-10-02T03:37:03.110Z,100860
2023-10-02T03:38:01.758Z,100860
2023-10-02T03:39:00.583Z,100860
2023-10-02T03:40:01.648Z,100860
2023-10-02T03:41:02.041Z,100860
2023-10-02T03:42:00.588Z,100860
2023-10-02T03:43:00.601Z,100850
2023-10-02T03:44:00.890Z,100860
2023-10-02T03:45:02.596Z,100860
2023-10-02T03:46:01.700Z,100850
2023-10-02T03:47:00.621Z,100850
2023-10-02T03:48:00.620Z,100850
2023-10-02T03:49:00.812Z,100850
2023-10-02T03:50:00.838Z,100850
2023-10-02T03:51:04.186Z,100850
2023-10-02T03:52:00.697Z,100850
2023-10-02T03:53:00.572Z,100850
2023-10-02T03:54:00.672Z,100850
2023-10-02T03:55:00.633Z,100850
2023-10-02T03:56:02.294Z,100850
2023-10-02T03:57:00.802Z,100850
2023-10-02T03:58:00.562Z,100850
2023-10-02T03:59:00.597Z,100860
2023-10-02T04:00:02.616Z,100860
2023-10-02T04:01:00.576Z,100870
2023-10-02T04:02:00.601Z,100860
2023-10-02T04:03:00.864Z,100860
2023-10-02T04:04:00.735Z,100860
2023-10-02T04:05:00.580Z,100870
2023-10-02T04:06:00.670Z,100870
2023-10-02T04:07:00.574Z,100860
2023-10-02T04:08:06.064Z,100860
2023-10-02T04:09:01.410Z,100870
2023-10-02T04:10:00.566Z,100870
2023-10-02T04:11:00.776Z,100870
2023-10-02T04:12:00.571Z,100870
2023-10-02T04:13:00.554Z,100870
2023-10-02T04:14:00.826Z,100870
2023-10-02T04:15:00.591Z,100870
2023-10-02T04:16:01.578Z,100870
2023-10-02T04:17:02.776Z,100870
2023-10-02T04:18:00.581Z,100870
2023-10-02T04:19:01.254Z,100860
2023-10-02T04:20:00.639Z,100860
2023-10-02T04:21:00.598Z,100860
2023-10-02T04:22:00.809Z,100860
2023-10-02T04:23:00.591Z,100860
2023-10-02T04:24:01.693Z,100870
2023-10-02T04:25:00.693Z,100860
2023-10-02T04:26:00.603Z,100860
2023-10-02T04:27:00.554Z,100860
2023-10-02T04:28:00.563Z,100860
2023-10-02T04:29:00.728Z,100860
2023-10-02T04:30:00.578Z,100860
2023-10-02T04:31:00.662Z,100850
2023-10-02T04:32:00.620Z,100860
2023-10-02T04:33:00.700Z,100850
2023-10-02T04:34:01.053Z,100850
2023-10-02T04:35:00.955Z,100850
2023-10-02T04:36:00.564Z,100860
2023-10-02T04:37:00.581Z,100860
2023-10-02T04:38:01.046Z,100860
2023-10-02T04:39:01.102Z,100850
2023-10-02T04:40:00.659Z,100860
2023-10-02T04:41:00.612Z,100860
2023-10-02T04:42:02.376Z,100860
2023-10-02T04:43:00.556Z,100860
2023-10-02T04:44:00.992Z,100860
2023-10-02T04:45:00.569Z,100860
2023-10-02T04:46:00.607Z,100860
2023-10-02T04:47:00.602Z,100860
2023-10-02T04:48:00.635Z,100860
2023-10-02T04:49:01.200Z,100860
2023-10-02T04:50:03.703Z,100870
2023-10-02T04:51:04.034Z,100870
2023-10-02T04:52:00.840Z,100870
2023-10-02T04:53:00.727Z,100870
2023-10-02T04:54:00.592Z,100860
2023-10-02T04:55:00.558Z,100860
2023-10-02T04:56:01.477Z,100860
2023-10-02T04:57:00.562Z,100870
2023-10-02T04:58:02.063Z,100870
2023-10-02T04:59:00.835Z,100870
2023-10-02T05:00:00.741Z,100870
2023-10-02T05:01:00.585Z,100870
2023-10-02T05:02:00.587Z,100870
2023-10-02T05:03:03.189Z,100880
2023-10-02T05:04:01.752Z,100870
2023-10-02T05:05:05.295Z,100880
2023-10-02T05:06:00.812Z,100880
2023-10-02T05:07:00.570Z,100880
2023-10-02T05:08:00.580Z,100880
2023-10-02T05:09:00.860Z,100880
2023-10-02T05:10:00.580Z,100880
2023-10-02T05:11:02.506Z,100880
2023-10-02T05:12:00.568Z,100880
2023-10-02T05:13:00.561Z,100880
2023-10-02T05:14:01.214Z,100880
2023-10-02T05:15:00.577Z,100880
2023-10-02T05:16:02.630Z,100880
2023-10-02T05:17:03.020Z,100880
2023-10-02T05:18:00.629Z,100880
2023-10-02T05:19:01.976Z,100880
2023-10-02T05:20:00.691Z,100880
2023-10-02T05:21:00.616Z,100880
2023-10-02T05:22:00.593Z,100880
2023-10-02T05:23:01.002Z,100880
2023-10-02T05:24:00.550Z,100880
2023-10-02T05:25:00.897Z,100880
2023-10-02T05:26:00.723Z,100880
2023-10-02T05:27:00.642Z,100880
2023-10-02T05:28:00.772Z,100880
2023-10-02T05:29:01.687Z,100880
2023-10-02T05:30:02.610Z,100880
2023-10-02T05:31:00.610Z,100880
2023-10-02T05:32:00.596Z,100880
2023-10-02T05:33:00.656Z,100880
2023-10-02T05:34:00.562Z,100880
2023-10-02T05:35:02.345Z,100880
2023-10-02T05:36:03.496Z,100880
2023-10-02T05:37:00.557Z,100880
2023-10-02T05:38:00.598Z,100880
2023-10-02T05:39:00.890Z,100880
2023-10-02T05:40:01.283Z,100880
2023-10-02T05:41:00.951Z,100880
2023-10-02T05:42:00.761Z,100880
2023-10-02T05:43:00.649Z,100890
2023-10-02T05:44:00.604Z,100880
2023-10-02T05:45:00.663Z,100890
2023-10-02T05:46:00.563Z,100880
2023-10-02T05:47:02.312Z,100890
2023-10-02T05:48:00.619Z,100880
2023-10-02T05:49:00.701Z,100880
2023-10-02T05:50:00.640Z,100890
2023-10-02T05:51:04.877Z,100880
2023-10-02T05:52:00.573Z,100890
2023-10-02T05:53:00.622Z,100890
2023-10-02T05:54:00.562Z,100890
2023-10-02T05:55:00.616Z,100890
2023-10-02T05:56:00.954Z,100890
2023-10-02T05:57:00.612Z,100890
2023-10-02T05:58:01.388Z,100890
2023-10-02T05:59:00.954Z,100900
2023-10-02T06:00:00.565Z,100900
2023-10-02T06:01:04.175Z,100900
2023-10-02T06:02:00.576Z,100900
2023-10-02T06:03:02.959Z,100900
2023-10-02T06:04:00.586Z,100900
2023-10-02T06:05:00.608Z,100900
2023-10-02T06:06:02.726Z,100900
2023-10-02T06:07:00.581Z,100910
2023-10-02T06:08:00.573Z,100910
2023-10-02T06:09:00.842Z,100900
2023-10-02T06:10:00.570Z,100900
2023-10-02T06:11:02.403Z,100910
2023-10-02T06:12:00.575Z,100910
2023-10-02T06:13:00.580Z,100910
2023-10-02T06:14:03.695Z,100910
2023-10-02T06:15:00.824Z,100910
2023-10-02T06:16:00.561Z,100910
2023-10-02T06:17:00.662Z,100900
2023-10-02T06:18:00.635Z,100910
2023-10-02T06:19:00.790Z,100910
2023-10-02T06:20:00.761Z,100910
2023-10-02T06:21:00.569Z,100910
2023-10-02T06:22:00.573Z,100910
2023-10-02T06:23:00.656Z,100910
2023-10-02T06:24:00.591Z,100910
2023-10-02T06:25:00.560Z,100910
2023-10-02T06:26:00.679Z,100910
2023-10-02T06:27:00.734Z,100910
2023-10-02T06:28:00.558Z,100910
2023-10-02T06:29:00.823Z,100900
2023-10-02T06:30:00.581Z,100900
2023-10-02T06:31:00.616Z,100900
2023-10-02T06:32:02.089Z,100900
2023-10-02T06:33:00.639Z,100900
2023-10-02T06:34:00.571Z,100900
2023-10-02T06:35:00.664Z,100900
2023-10-02T06:36:04.426Z,100910
2023-10-02T06:37:00.566Z,100910
2023-10-02T06:38:00.639Z,100910
2023-10-02T06:39:00.923Z,100910
2023-10-02T06:40:00.583Z,100910
2023-10-02T06:41:08.225Z,100910
2023-10-02T06:42:01.195Z,100910
2023-10-02T06:43:00.568Z,100900
2023-10-02T06:44:00.614Z,100910
2023-10-02T06:45:00.611Z,100900
2023-10-02T06:46:09.566Z,100900
2023-10-02T06:47:00.633Z,100900
2023-10-02T06:48:00.569Z,100900
2023-10-02T06:49:00.718Z,100900
2023-10-02T06:50:00.769Z,100900
2023-10-02T06:51:02.427Z,100900
2023-10-02T06:52:00.583Z,100900
2023-10-02T06:53:00.937Z,100900
2023-10-02T06:54:00.573Z,100900
2023-10-02T06:55:00.898Z,100900
2023-10-02T06:56:00.701Z,100900
2023-10-02T06:57:00.564Z,100900
2023-10-02T06:58:00.569Z,100900
2023-10-02T06:59:00.880Z,100900
2023-10-02T07:00:00.586Z,100900
2023-10-02T07:01:00.585Z,100900
2023-10-02T07:02:00.652Z,100900
2023-10-02T07:03:00.637Z,100900
2023-10-02T07:04:00.761Z,100900
2023-10-02T07:05:00.646Z,100900
2023-10-02T07:06:05.327Z,100900
2023-10-02T07:07:00.559Z,100910
2023-10-02T07:08:02.953Z,100900
2023-10-02T07:09:00.770Z,100900
2023-10-02T07:10:00.572Z,100910
2023-10-02T07:11:00.607Z,100900
2023-10-02T07:12:01.554Z,100910
2023-10-02T07:13:00.554Z,100910
2023-10-02T07:14:00.852Z,100910
2023-10-02T07:15:00.587Z,100910
2023-10-02T07:16:00.634Z,100910
2023-10-02T07:17:00.668Z,100910
2023-10-02T07:18:00.624Z,100910
2023-10-02T07:19:01.388Z,100910
2023-10-02T07:20:03.055Z,100900
2023-10-02T07:21:01.889Z,100900
2023-10-02T07:22:00.558Z,100910
2023-10-02T07:23:00.657Z,100900
2023-10-02T07:24:01.784Z,100900
2023-10-02T07:25:00.556Z,100890
2023-10-02T07:26:00.624Z,100890
2023-10-02T07:27:00.637Z,100890
2023-10-02T07:28:00.605Z,100890
2023-10-02T07:29:00.717Z,100890
2023-10-02T07:30:03.773Z,100890
2023-10-02T07:31:00.560Z,100890
2023-10-02T07:32:00.622Z,100890
2023-10-02T07:33:00.654Z,100890
2023-10-02T07:34:01.096Z,100890
2023-10-02T07:35:00.702Z,100890
2023-10-02T07:36:01.918Z,100880
2023-10-02T07:37:00.585Z,100890
2023-10-02T07:38:00.637Z,100890
2023-10-02T07:39:00.876Z,100880
2023-10-02T07:40:00.596Z,100880
2023-10-02T07:41:00.588Z,100880
2023-10-02T07:42:00.644Z,100880
2023-10-02T07:43:00.623Z,100880
2023-10-02T07:44:00.585Z,100880
2023-10-02T07:45:06.165Z,100880
2023-10-02T07:46:04.041Z,100880
2023-10-02T07:47:00.596Z,100880
2023-10-02T07:48:01.011Z,100880
2023-10-02T07:49:00.832Z,100880
2023-10-02T07:50:00.660Z,100880
2023-10-02T07:51:00.815Z,100880
2023-10-02T07:52:00.573Z,100880
2023-10-02T07:53:02.417Z,100880
2023-10-02T07:54:00.854Z,100880
2023-10-02T07:55:00.639Z,100870
2023-10-02T07:56:00.637Z,100870
2023-10-02T07:57:00.567Z,100870
2023-10-02T07:58:00.987Z,100860
2023-10-02T07:59:00.847Z,100870
2023-10-02T08:00:02.368Z,100870
2023-10-02T08:01:00.607Z,100860
2023-10-02T08:02:00.653Z,100870
2023-10-02T08:03:00.708Z,100870
2023-10-02T08:04:00.706Z,100860
2023-10-02T08:05:00.726Z,100870
2023-10-02T08:06:04.748Z,100870
2023-10-02T08:07:14.026Z,100860
2023-10-02T08:08:00.580Z,100870
2023-10-02T08:09:02.914Z,100870
2023-10-02T08:10:00.708Z,100870
2023-10-02T08:11:01.839Z,100870
2023-10-02T08:12:00.573Z,100870
2023-10-02T08:13:00.562Z,100870
2023-10-02T08:14:00.828Z,100870
2023-10-02T08:15:04.042Z,100870
2023-10-02T08:16:01.667Z,100870
2023-10-02T08:17:01.745Z,100870
2023-10-02T08:18:00.680Z,100870
2023-10-02T08:19:00.924Z,100860
2023-10-02T08:20:01.166Z,100870
2023-10-02T08:21:00.609Z,100870
2023-10-02T08:22:00.606Z,100870
2023-10-02T08:23:08.377Z,100870
2023-10-02T08:24:01.330Z,100870
2023-10-02T08:25:01.166Z,100870
2023-10-02T08:26:10.071Z,100860
2023-10-02T08:27:00.636Z,100860
2023-10-02T08:28:00.579Z,100870
2023-10-02T08:29:00.825Z,100860
2023-10-02T08:30:00.557Z,100860
2023-10-02T08:31:01.310Z,100860
2023-10-02T08:32:00.677Z,100850
2023-10-02T08:33:02.582Z,100860
2023-10-02T08:34:03.721Z,100850
2023-10-02T08:35:00.811Z,100860
2023-10-02T08:36:00.967Z,100850
2023-10-02T08:37:00.559Z,100850
2023-10-02T08:38:00.659Z,100850
2023-10-02T08:39:17.374Z,100860
2023-10-02T08:40:00.584Z,100860
2023-10-02T08:41:04.003Z,100850
2023-10-02T08:42:01.440Z,100850
2023-10-02T08:43:00.586Z,100850
2023-10-02T08:44:00.613Z,100850
2023-10-02T08:45:00.664Z,100850
2023-10-02T08:46:02.081Z,100850
2023-10-02T08:47:00.581Z,100850
2023-10-02T08:48:00.627Z,100850
2023-10-02T08:49:00.866Z,100850
2023-10-02T08:50:00.610Z,100850
2023-10-02T08:51:00.616Z,100860
2023-10-02T08:52:00.945Z,100850
2023-10-02T08:53:00.655Z,100850
2023-10-02T08:54:02.128Z,100860
2023-10-02T08:55:16.052Z,100860
2023-10-02T08:56:00.583Z,100850
2023-10-02T08:57:03.813Z,100850
2023-10-02T08:58:12.600Z,100850
2023-10-02T08:59:11.615Z,100850
2023-10-02T09:00:11.557Z,100850
2023-10-02T09:01:01.583Z,100840
2023-10-02T09:02:06.631Z,100840
2023-10-02T09:03:15.972Z,100850
2023-10-02T09:04:07.151Z,100840
2023-10-02T09:05:03.628Z,100840
2023-10-02T09:06:00.564Z,100840
2023-10-02T09:07:00.638Z,100840
2023-10-02T09:08:00.624Z,100840
2023-10-02T09:09:00.838Z,100830
2023-10-02T09:10:08.436Z,100830
2023-10-02T09:11:00.648Z,100830
2023-10-02T09:12:00.585Z,100830
2023-10-02T09:13:16.677Z,100830
2023-10-02T09:14:02.335Z,100830
2023-10-02T09:15:01.050Z,100830
2023-10-02T09:16:10.640Z,100830
2023-10-02T09:17:03.223Z,100840
2023-10-02T09:18:00.895Z,100830
2023-10-02T09:19:00.830Z,100830
2023-10-02T09:20:02.544Z,100830
2023-10-02T09:21:01.037Z,100830
2023-10-02T09:22:01.805Z,100830
2023-10-02T09:23:00.626Z,100830
2023-10-02T09:24:00.617Z,100830
2023-10-02T09:25:05.711Z,100830
2023-10-02T09:26:01.130Z,100830
2023-10-02T09:27:01.450Z,100840
2023-10-02T09:28:00.577Z,100830
2023-10-02T09:29:01.826Z,100830
2023-10-02T09:30:03.396Z,100820
2023-10-02T09:31:01.255Z,100820
2023-10-02T09:32:00.576Z,100820
2023-10-02T09:33:04.880Z,100830
2023-10-02T09:34:05.599Z,100820
2023-10-02T09:35:12.412Z,100810
2023-10-02T09:36:33.537Z,100820
2023-10-02T09:37:15.340Z,100820
2023-10-02T09:38:07.032Z,100820
2023-10-02T09:39:03.081Z,100820
2023-10-02T09:40:02.017Z,100810
2023-10-02T09:41:01.031Z,100820
2023-10-02T09:42:02.199Z,100820
2023-10-02T09:43:07.993Z,100820
2023-10-02T09:44:03.496Z,100820
2023-10-02T09:45:03.027Z,100820
2023-10-02T09:46:02.679Z,100810
2023-10-02T09:47:00.822Z,100820
2023-10-02T09:48:06.589Z,100820
2023-10-02T09:49:05.790Z,100810
2023-10-02T09:50:12.932Z,100810
2023-10-02T09:51:04.997Z,100810
2023-10-02T09:52:13.363Z,100810
2023-10-02T09:53:05.185Z,100800
2023-10-02T09:54:14.017Z,100810
2023-10-02T09:55:16.015Z,100810
2023-10-02T09:56:09.529Z,100800
2023-10-02T09:57:05.857Z,100810
2023-10-02T09:58:06.131Z,100810
2023-10-02T09:59:01.080Z,100800
2023-10-02T10:00:05.572Z,100800
2023-10-02T10:01:30.634Z,100810
2023-10-02T10:02:08.070Z,100800
2023-10-02T10:03:30.703Z,100800
2023-10-02T10:04:00.747Z,100800
2023-10-02T10:05:01.745Z,100800
2023-10-02T10:06:08.052Z,100800
2023-10-02T10:07:02.497Z,100800
2023-10-02T10:08:01.609Z,100790
2023-10-02T10:09:01.795Z,100790
2023-10-02T10:10:41.853Z,100800
2023-10-02T10:11:04.563Z,100800
2023-10-02T10:12:00.638Z,100790
2023-10-02T10:13:00.716Z,100790
2023-10-02T10:14:30.902Z,100790
2023-10-02T10:15:30.623Z,100790
2023-10-02T10:16:30.561Z,100790
2023-10-02T10:17:00.611Z,100790
2023-10-02T10:18:00.635Z,100790
2023-10-02T10:19:01.780Z,100790
2023-10-02T10:20:07.974Z,100790
2023-10-02T10:21:46.881Z,100790
2023-10-02T10:22:00.563Z,100790
2023-10-02T10:23:19.250Z,100780
2023-10-02T10:24:32.452Z,100780
2023-10-02T10:25:00.623Z,100790
2023-10-02T10:26:00.695Z,100790
2023-10-02T10:27:01.081Z,100790
2023-10-02T10:28:00.621Z,100790
2023-10-02T10:29:38.485Z,100790
2023-10-02T10:30:30.083Z,100800
2023-10-02T10:31:00.678Z,100790
2023-10-02T10:32:14.925Z,100790
2023-10-02T10:33:01.614Z,100780
2023-10-02T10:34:00.577Z,100780
2023-10-02T10:35:00.610Z,100780
2023-10-02T10:36:00.979Z,100790
2023-10-02T10:37:00.573Z,100790
2023-10-02T10:38:01.493Z,100780
2023-10-02T10:39:00.796Z,100780
2023-10-02T10:40:00.583Z,100780
2023-10-02T10:41:01.636Z,100780
2023-10-02T10:42:01.092Z,100780
2023-10-02T10:43:00.723Z,100780
2023-10-02T10:44:00.613Z,100780
2023-10-02T10:45:08.519Z,100770
2023-10-02T10:46:01.165Z,100770
2023-10-02T10:47:00.595Z,100770
2023-10-02T10:48:00.610Z,100770
2023-10-02T10:49:02.615Z,100770
2023-10-02T10:50:00.606Z,100760
2023-10-02T10:51:09.343Z,100770
2023-10-02T10:52:00.595Z,100770
2023-10-02T10:53:01.149Z,100760
2023-10-02T10:54:22.285Z,100760
2023-10-02T10:55:03.418Z,100760
2023-10-02T10:56:03.114Z,100760
2023-10-02T10:57:02.105Z,100760
2023-10-02T10:58:00.614Z,100760
2023-10-02T10:59:00.992Z,100760
2023-10-02T11:00:03.450Z,100760
2023-10-02T11:01:01.833Z,100760
2023-10-02T11:02:05.733Z,100750
2023-10-02T11:03:03.156Z,100750
2023-10-02T11:04:02.300Z,100750
2023-10-02T11:05:00.647Z,100750
2023-10-02T11:06:01.958Z,100750
2023-10-02T11:07:00.568Z,100750
2023-10-02T11:08:10.364Z,100750
2023-10-02T11:09:05.127Z,100750
2023-10-02T11:10:02.207Z,100750
2023-10-02T11:11:02.822Z,100750
2023-10-02T11:12:00.605Z,100750
2023-10-02T11:13:00.554Z,100750
2023-10-02T11:14:02.183Z,100750
2023-10-02T11:15:00.599Z,100750
2023-10-02T11:16:00.588Z,100750
2023-10-02T11:17:01.211Z,100740
2023-10-02T11:18:17.885Z,100740
2023-10-02T11:19:01.663Z,100740
2023-10-02T11:20:00.591Z,100740
2023-10-02T11:21:00.569Z,100740
2023-10-02T11:22:02.629Z,100740
2023-10-02T11:23:00.647Z,100740
2023-10-02T11:24:17.914Z,100730
2023-10-02T11:25:01.597Z,100730
2023-10-02T11:26:00.595Z,100730
2023-10-02T11:27:06.159Z,100730
2023-10-02T11:28:00.591Z,100720
2023-10-02T11:29:00.859Z,100720
2023-10-02T11:30:06.432Z,100730
2023-10-02T11:31:30.983Z,100730
2023-10-02T11:32:00.657Z,100730
2023-10-02T11:33:00.705Z,100720
2023-10-02T11:34:16.028Z,100730
2023-10-02T11:35:00.931Z,100730
2023-10-02T11:36:00.584Z,100720
2023-10-02T11:37:11.012Z,100730
2023-10-02T11:38:00.935Z,100720
2023-10-02T11:39:03.505Z,100720
2023-10-02T11:40:00.609Z,100720
2023-10-02T11:41:00.610Z,100720
2023-10-02T11:42:00.597Z,100720
2023-10-02T11:43:00.599Z,100720
2023-10-02T11:44:00.841Z,100710
2023-10-02T11:45:00.641Z,100720
2023-10-02T11:46:00.577Z,100710
2023-10-02T11:47:01.034Z,100720
2023-10-02T11:48:00.719Z,100710
2023-10-02T11:49:00.810Z,100710
2023-10-02T11:50:00.620Z,100720
2023-10-02T11:51:00.612Z,100720
2023-10-02T11:52:00.608Z,100710
2023-10-02T11:53:00.578Z,100720
2023-10-02T11:54:01.225Z,100720
2023-10-02T11:55:00.980Z,100720
2023-10-02T11:56:00.619Z,100720
2023-10-02T11:57:00.588Z,100720
2023-10-02T11:58:00.567Z,100720
2023-10-02T11:59:01.355Z,100720
2023-10-02T12:00:00.569Z,100710
2023-10-02T12:01:03.935Z,100710
2023-10-02T12:02:01.286Z,100710
2023-10-02T12:03:00.609Z,100710
2023-10-02T12:04:00.710Z,100710
2023-10-02T12:05:00.612Z,100710
2023-10-02T12:06:00.554Z,100710
2023-10-02T12:07:00.617Z,100710
2023-10-02T12:08:02.226Z,100700
2023-10-02T12:09:00.748Z,100700
2023-10-02T12:10:00.611Z,100690
2023-10-02T12:11:00.601Z,100690
2023-10-02T12:12:01.275Z,100690
2023-10-02T12:13:00.570Z,100690
2023-10-02T12:14:01.298Z,100690
2023-10-02T12:15:00.593Z,100690
2023-10-02T12:16:00.645Z,100690
2023-10-02T12:17:00.568Z,100680
2023-10-02T12:18:00.598Z,100680
2023-10-02T12:19:00.963Z,100690
2023-10-02T12:20:00.858Z,100690
2023-10-02T12:21:00.593Z,100690
2023-10-02T12:22:08.682Z,100690
2023-10-02T12:23:00.592Z,100690
2023-10-02T12:24:00.572Z,100690
2023-10-02T12:25:00.576Z,100680
2023-10-02T12:26:00.604Z,100680
2023-10-02T12:27:00.622Z,100680
2023-10-02T12:28:00.557Z,100680